Time;durP1;ratioP1;P1;durP2;ratioP2;P2;SDS_P1;SDS_P2;PMS_P1;PMS_P2;Temp;Humidity;BMP_temperature;BMP_pressure;BME280_temperature;BME280_humidity;BME280_pressure;Samples;Min_cycle;Max_cycle;Signal;HPM_P1;HPM_P2
2023/12/17 00:02:23;;;;;;;17.85;11.98;;;8.50;99.90;;;;;;5002744;28;20037;-48
2023/12/17 00:04:48;;;;;;;18.35;12.00;;;8.50;99.90;;;;;;5003482;28;20025;-50
2023/12/17 00:07:14;;;;;;;19.08;11.43;;;8.60;99.90;;;;;;5014509;28;20386;-53
2023/12/17 00:09:40;;;;;;;18.65;11.93;;;8.50;99.90;;;;;;5010218;28;20046;-56
2023/12/17 00:12:06;;;;;;;16.70;11.60;;;8.60;99.90;;;;;;5009889;28;20680;-50
2023/12/17 00:14:31;;;;;;;19.52;11.10;;;8.50;99.90;;;;;;5015212;28;20098;-50
2023/12/17 00:16:57;;;;;;;17.48;10.82;;;8.60;99.90;;;;;;5003320;28;20026;-52
2023/12/17 00:19:22;;;;;;;17.63;11.02;;;8.50;99.90;;;;;;5016390;28;20553;-54
2023/12/17 00:21:48;;;;;;;18.17;12.43;;;8.50;99.90;;;;;;5010915;28;20030;-52
2023/12/17 00:24:13;;;;;;;15.68;10.82;;;8.50;99.90;;;;;;5012592;28;20030;-54
2023/12/17 00:26:39;;;;;;;18.00;10.82;;;8.60;99.90;;;;;;5011482;28;20030;-50
2023/12/17 00:29:04;;;;;;;18.42;11.02;;;8.60;99.90;;;;;;5012002;28;20481;-55
2023/12/17 00:31:30;;;;;;;24.98;11.55;;;8.60;99.90;;;;;;5011151;28;20701;-50
2023/12/17 00:33:55;;;;;;;14.93;9.75;;;8.60;99.90;;;;;;5004639;28;20517;-48
2023/12/17 00:36:22;;;;;;;16.55;10.48;;;8.60;99.90;;;;;;5017384;28;20019;-52
2023/12/17 00:38:47;;;;;;;14.80;10.50;;;8.60;99.90;;;;;;5012548;28;20031;-53
2023/12/17 00:41:13;;;;;;;16.27;9.60;;;8.60;99.90;;;;;;5017594;28;20033;-50
2023/12/17 00:43:39;;;;;;;16.23;9.45;;;8.60;99.90;;;;;;5013534;28;20050;-53
2023/12/17 00:46:04;;;;;;;11.68;8.45;;;8.60;99.90;;;;;;5018470;28;20068;-47
2023/12/17 00:48:31;;;;;;;14.23;8.85;;;8.60;99.90;;;;;;5008436;28;20018;-50
2023/12/17 00:50:56;;;;;;;11.68;9.63;;;8.60;99.90;;;;;;5004291;28;20033;-54
2023/12/17 00:53:22;;;;;;;14.85;9.65;;;8.60;99.90;;;;;;5012154;28;20037;-51
2023/12/17 00:55:47;;;;;;;14.57;9.25;;;8.70;99.90;;;;;;5012809;28;20025;-49
2023/12/17 00:58:13;;;;;;;13.13;9.07;;;8.60;99.90;;;;;;5010890;28;20031;-55
2023/12/17 01:00:38;;;;;;;10.45;8.07;;;8.60;99.90;;;;;;5014623;28;20050;-50
2023/12/17 01:03:04;;;;;;;19.42;9.10;;;8.70;99.90;;;;;;5011230;28;20092;-50
2023/12/17 01:05:33;;;;;;;16.65;10.00;;;8.70;99.90;;;;;;5016612;28;20031;-59
2023/12/17 01:07:58;;;;;;;15.48;9.00;;;8.70;99.90;;;;;;5011712;28;20022;-52
2023/12/17 01:10:24;;;;;;;13.13;8.55;;;8.70;99.90;;;;;;5018200;28;20025;-49
2023/12/17 01:12:49;;;;;;;12.25;8.98;;;8.70;99.90;;;;;;5011392;28;20028;-50
2023/12/17 01:15:15;;;;;;;11.98;8.20;;;8.70;99.90;;;;;;5013292;28;20028;-52
2023/12/17 01:17:42;;;;;;;11.65;7.80;;;8.80;99.90;;;;;;5008002;28;20064;-51
2023/12/17 01:20:08;;;;;;;18.48;8.82;;;8.80;99.90;;;;;;5021547;28;20048;-53
2023/12/17 01:22:33;;;;;;;13.07;8.10;;;8.80;99.90;;;;;;5011054;28;20057;-54
2023/12/17 01:24:59;;;;;;;11.25;8.15;;;8.70;99.90;;;;;;5013363;28;20069;-51
2023/12/17 01:27:24;;;;;;;13.15;8.32;;;8.80;99.90;;;;;;5005763;28;20145;-52
2023/12/17 01:29:50;;;;;;;10.63;7.20;;;8.70;99.90;;;;;;4994495;28;20056;-55
2023/12/17 01:32:15;;;;;;;13.82;7.72;;;8.80;99.90;;;;;;5001647;28;20022;-52
2023/12/17 01:34:41;;;;;;;11.48;8.02;;;8.80;99.90;;;;;;4996287;28;20041;-49
2023/12/17 01:37:07;;;;;;;12.63;8.18;;;8.80;99.90;;;;;;4998918;28;20025;-54
2023/12/17 01:39:33;;;;;;;12.02;7.85;;;8.80;99.90;;;;;;5003709;28;20022;-56
2023/12/17 01:41:58;;;;;;;12.80;8.70;;;8.80;99.90;;;;;;4999342;28;20029;-51
2023/12/17 01:44:24;;;;;;;12.88;6.95;;;8.80;99.90;;;;;;5003711;28;20147;-55
2023/12/17 01:46:49;;;;;;;12.00;7.50;;;8.80;99.90;;;;;;5003020;28;20428;-52
2023/12/17 01:49:15;;;;;;;13.43;8.20;;;8.80;99.90;;;;;;5002837;28;20117;-54
2023/12/17 01:51:41;;;;;;;10.15;7.32;;;8.80;99.90;;;;;;5004893;28;20034;-49
2023/12/17 01:54:07;;;;;;;12.20;7.55;;;8.80;99.90;;;;;;5002960;28;20022;-52
2023/12/17 01:56:33;;;;;;;10.55;7.07;;;8.80;99.90;;;;;;5003074;28;20052;-55
2023/12/17 01:59:00;;;;;;;12.23;7.63;;;8.80;99.90;;;;;;5003655;28;20434;-51
2023/12/17 02:01:26;;;;;;;13.65;7.28;;;8.80;99.90;;;;;;5003196;28;20025;-52
2023/12/17 02:03:51;;;;;;;13.82;7.65;;;8.80;99.90;;;;;;5004805;28;20029;-49
2023/12/17 02:06:17;;;;;;;12.13;8.07;;;8.80;99.90;;;;;;5003723;28;20022;-47
2023/12/17 02:08:42;;;;;;;16.77;7.53;;;8.80;99.90;;;;;;5002604;28;20030;-50
2023/12/17 02:11:08;;;;;;;10.38;6.85;;;8.90;99.90;;;;;;5004634;28;20029;-49
2023/12/17 02:13:33;;;;;;;12.48;7.75;;;8.90;99.90;;;;;;5004771;28;20026;-48
2023/12/17 02:15:59;;;;;;;13.77;7.28;;;8.80;99.90;;;;;;5003638;28;20022;-53
2023/12/17 02:18:24;;;;;;;12.23;7.47;;;8.90;99.90;;;;;;5005823;28;20033;-52
2023/12/17 02:20:50;;;;;;;10.35;5.97;;;8.90;99.90;;;;;;5002834;28;20076;-49
2023/12/17 02:23:16;;;;;;;12.23;7.20;;;8.80;99.90;;;;;;5005265;28;20121;-49
2023/12/17 02:25:42;;;;;;;10.32;6.70;;;8.90;99.90;;;;;;5004061;28;20048;-49
2023/12/17 02:28:08;;;;;;;10.00;6.75;;;8.90;99.90;;;;;;5002659;28;20088;-47
2023/12/17 02:30:34;;;;;;;9.23;6.85;;;8.90;99.90;;;;;;4999557;28;20548;-47
2023/12/17 02:32:59;;;;;;;8.63;6.70;;;8.80;99.90;;;;;;5001465;28;20037;-53
2023/12/17 02:35:25;;;;;;;9.30;7.20;;;8.80;99.90;;;;;;4999485;28;20099;-57
2023/12/17 02:37:51;;;;;;;9.20;6.72;;;8.90;99.90;;;;;;4997960;28;20122;-52
2023/12/17 02:40:16;;;;;;;11.88;6.65;;;8.90;99.90;;;;;;4999967;28;20117;-48
2023/12/17 02:42:42;;;;;;;8.25;6.55;;;8.90;99.90;;;;;;4999473;28;20654;-47
2023/12/17 02:45:09;;;;;;;12.65;6.40;;;8.90;99.90;;;;;;5003997;28;20509;-52
2023/12/17 02:47:35;;;;;;;14.63;7.10;;;8.90;99.90;;;;;;5000803;28;20640;-53
2023/12/17 02:50:00;;;;;;;8.75;6.70;;;8.90;99.90;;;;;;4998215;28;20025;-50
2023/12/17 02:52:26;;;;;;;11.30;6.85;;;8.90;99.90;;;;;;5000199;28;20552;-48
2023/12/17 02:54:52;;;;;;;8.88;6.93;;;8.80;99.90;;;;;;5002714;28;20034;-48
2023/12/17 02:57:17;;;;;;;11.88;6.35;;;8.90;99.90;;;;;;4999073;28;20022;-49
2023/12/17 02:59:43;;;;;;;12.90;6.95;;;8.80;99.90;;;;;;5000316;28;20095;-53
2023/12/17 03:02:08;;;;;;;14.27;6.53;;;8.80;99.90;;;;;;4998624;28;20534;-52
2023/12/17 03:04:34;;;;;;;8.57;6.32;;;8.80;99.90;;;;;;5001107;28;20033;-50
2023/12/17 03:06:59;;;;;;;11.95;6.72;;;8.80;99.90;;;;;;4999267;28;20631;-52
2023/12/17 03:09:25;;;;;;;12.50;6.78;;;8.80;99.90;;;;;;4999545;28;20045;-54
2023/12/17 03:11:51;;;;;;;12.30;7.20;;;8.80;99.90;;;;;;5000781;28;20358;-50
2023/12/17 03:14:16;;;;;;;11.38;6.97;;;8.90;99.90;;;;;;4998185;28;20050;-51
2023/12/17 03:16:43;;;;;;;11.52;6.32;;;8.90;99.90;;;;;;4996490;28;20030;-54
2023/12/17 03:19:08;;;;;;;8.77;6.07;;;8.90;99.90;;;;;;4997083;28;20108;-48
2023/12/17 03:21:34;;;;;;;8.48;6.03;;;8.80;99.90;;;;;;5000291;28;20110;-51
2023/12/17 03:24:00;;;;;;;14.38;6.03;;;8.80;99.90;;;;;;4997707;28;20509;-47
2023/12/17 03:26:25;;;;;;;9.88;5.82;;;8.80;99.90;;;;;;4995018;28;20034;-51
2023/12/17 03:28:51;;;;;;;11.82;6.82;;;8.80;99.90;;;;;;4999516;28;20026;-47
2023/12/17 03:31:16;;;;;;;12.13;6.93;;;8.80;99.90;;;;;;4999445;28;20080;-53
2023/12/17 03:33:43;;;;;;;11.18;6.15;;;8.80;99.90;;;;;;5001141;28;20037;-50
2023/12/17 03:36:14;;;;;;;9.20;5.88;;;8.80;99.90;;;;;;4998578;28;20027;-48
2023/12/17 03:38:40;;;;;;;8.57;6.47;;;8.90;99.90;;;;;;5001375;28;20577;-48
2023/12/17 03:41:05;;;;;;;11.18;6.25;;;8.80;99.90;;;;;;4996634;28;20024;-49
2023/12/17 03:43:31;;;;;;;7.95;5.93;;;8.90;99.90;;;;;;5004181;28;20034;-49
2023/12/17 03:45:56;;;;;;;8.70;6.13;;;8.90;99.90;;;;;;5006392;28;20037;-54
2023/12/17 03:48:22;;;;;;;11.65;5.95;;;8.90;99.90;;;;;;5000601;28;20056;-52
2023/12/17 03:50:47;;;;;;;7.03;5.45;;;8.90;99.90;;;;;;5003454;28;20057;-47
2023/12/17 03:53:13;;;;;;;6.78;5.35;;;8.90;99.90;;;;;;5007827;28;20478;-48
2023/12/17 03:55:38;;;;;;;12.10;5.80;;;8.90;99.90;;;;;;5002866;28;20040;-54
2023/12/17 03:58:04;;;;;;;12.13;5.57;;;8.90;99.90;;;;;;5009282;28;20018;-47
2023/12/17 04:00:30;;;;;;;8.48;5.93;;;8.80;99.90;;;;;;5007772;28;20034;-48
2023/12/17 04:02:56;;;;;;;7.32;5.50;;;8.80;99.90;;;;;;5003551;28;20096;-49
2023/12/17 04:05:24;;;;;;;7.95;5.45;;;8.80;99.90;;;;;;5005962;28;20030;-50
2023/12/17 04:07:50;;;;;;;10.82;5.82;;;8.80;99.90;;;;;;5000332;28;20030;-50
2023/12/17 04:10:16;;;;;;;6.32;4.25;;;8.90;99.90;;;;;;5003718;28;20038;-49
2023/12/17 04:12:41;;;;;;;9.52;5.43;;;8.90;99.90;;;;;;5004445;28;20026;-51
2023/12/17 04:15:07;;;;;;;9.80;5.80;;;8.90;99.90;;;;;;5006702;28;20030;-53
2023/12/17 04:17:33;;;;;;;9.02;5.15;;;8.90;99.90;;;;;;5005349;28;20398;-52
2023/12/17 04:19:58;;;;;;;6.03;4.57;;;8.90;99.90;;;;;;5005742;28;20105;-47
2023/12/17 04:22:24;;;;;;;8.18;5.53;;;8.90;99.90;;;;;;5010081;28;20057;-48
2023/12/17 04:24:49;;;;;;;8.05;5.45;;;8.90;99.90;;;;;;5005699;28;20104;-54
2023/12/17 04:27:15;;;;;;;10.07;5.28;;;8.90;99.90;;;;;;5003173;28;20494;-52
2023/12/17 04:29:41;;;;;;;7.95;5.40;;;8.90;99.90;;;;;;5003819;28;20030;-52
2023/12/17 04:32:07;;;;;;;9.30;5.68;;;8.90;99.90;;;;;;5007015;28;20030;-47
2023/12/17 04:34:33;;;;;;;9.48;5.13;;;8.90;99.90;;;;;;5008140;28;20040;-53
2023/12/17 04:36:59;;;;;;;9.07;4.72;;;9.00;99.90;;;;;;5004110;28;20021;-52
2023/12/17 04:39:26;;;;;;;6.28;5.03;;;8.90;99.90;;;;;;5040855;22;20064;-62
2023/12/17 04:41:51;;;;;;;8.00;5.13;;;8.90;99.90;;;;;;5021346;28;20049;-59
2023/12/17 04:44:17;;;;;;;11.77;6.20;;;8.90;99.90;;;;;;5022003;28;20465;-59
2023/12/17 04:46:42;;;;;;;7.78;5.00;;;8.90;99.90;;;;;;5018942;28;20029;-62
2023/12/17 04:49:08;;;;;;;9.82;5.78;;;8.90;99.90;;;;;;5008905;28;20030;-59
2023/12/17 04:51:33;;;;;;;8.95;5.50;;;8.90;99.90;;;;;;5002095;28;20129;-60
2023/12/17 04:53:59;;;;;;;9.45;6.25;;;8.90;99.90;;;;;;5001302;28;20022;-58
2023/12/17 04:56:25;;;;;;;9.27;5.45;;;8.90;99.90;;;;;;5002905;28;20472;-61
2023/12/17 04:58:50;;;;;;;9.45;6.28;;;8.90;99.90;;;;;;5004553;28;20104;-58
2023/12/17 05:01:16;;;;;;;8.23;5.88;;;9.00;99.90;;;;;;5000009;28;20551;-62
2023/12/17 05:03:41;;;;;;;10.30;5.70;;;8.90;99.90;;;;;;5001826;28;20446;-60
2023/12/17 05:06:08;;;;;;;6.95;4.88;;;8.90;99.90;;;;;;5000669;28;20026;-60
2023/12/17 05:08:34;;;;;;;9.77;5.75;;;8.90;99.90;;;;;;5002645;28;20434;-61
2023/12/17 05:10:59;;;;;;;9.07;5.60;;;9.00;99.90;;;;;;5002119;28;20040;-62
2023/12/17 05:13:25;;;;;;;11.10;6.07;;;8.90;99.90;;;;;;5004381;28;20037;-58
2023/12/17 05:15:50;;;;;;;8.18;5.55;;;9.00;99.90;;;;;;5000103;28;20034;-62
2023/12/17 05:18:16;;;;;;;10.60;6.28;;;9.00;99.90;;;;;;5000816;28;20565;-59
2023/12/17 05:20:41;;;;;;;8.27;5.25;;;9.00;99.90;;;;;;4998608;28;20637;-59
2023/12/17 05:23:10;;;;;;;6.60;5.30;;;9.00;99.90;;;;;;5002417;28;20549;-60
2023/12/17 05:25:35;;;;;;;6.00;4.78;;;8.90;99.90;;;;;;5000469;28;20116;-61
2023/12/17 05:28:01;;;;;;;6.43;4.88;;;9.00;99.90;;;;;;5001860;28;20125;-61
2023/12/17 05:30:26;;;;;;;10.50;5.53;;;9.00;99.90;;;;;;5002022;28;20034;-61
2023/12/17 05:32:52;;;;;;;10.20;5.10;;;8.90;99.90;;;;;;5001279;28;20401;-61
2023/12/17 05:35:17;;;;;;;5.85;5.10;;;9.00;99.90;;;;;;5002656;28;20025;-58
2023/12/17 05:37:43;;;;;;;8.27;5.88;;;9.00;99.90;;;;;;5000188;28;20094;-57
2023/12/17 05:40:09;;;;;;;7.65;4.70;;;9.00;99.90;;;;;;5001500;28;20030;-59
2023/12/17 05:42:36;;;;;;;7.35;5.25;;;9.00;99.90;;;;;;4999558;28;20037;-61
2023/12/17 05:45:02;;;;;;;7.30;5.07;;;9.00;99.90;;;;;;5003877;28;20032;-57
2023/12/17 05:47:27;;;;;;;13.80;5.18;;;9.00;99.90;;;;;;5002109;28;20026;-61
2023/12/17 05:49:53;;;;;;;7.95;4.75;;;9.00;99.90;;;;;;5003361;28;20033;-60
2023/12/17 05:52:18;;;;;;;7.28;5.35;;;9.00;99.90;;;;;;4999782;28;20116;-58
2023/12/17 05:54:44;;;;;;;9.77;5.45;;;9.00;99.90;;;;;;5001192;28;20061;-59
2023/12/17 05:57:10;;;;;;;9.77;5.47;;;9.00;99.90;;;;;;4997493;28;20656;-60
2023/12/17 05:59:35;;;;;;;6.43;5.45;;;9.00;99.90;;;;;;4999606;28;20434;-58
2023/12/17 06:02:01;;;;;;;6.45;4.65;;;9.00;99.90;;;;;;4995296;28;20034;-58
2023/12/17 06:04:27;;;;;;;7.32;4.53;;;9.00;99.90;;;;;;4998262;28;20558;-57
2023/12/17 06:06:55;;;;;;;8.65;5.38;;;9.00;99.90;;;;;;4997447;28;21228;-61
2023/12/17 06:09:21;;;;;;;6.35;4.75;;;9.10;99.90;;;;;;5001225;28;20590;-59
2023/12/17 06:11:46;;;;;;;10.48;5.03;;;9.00;99.90;;;;;;4999388;28;20453;-59
2023/12/17 06:14:12;;;;;;;12.25;5.28;;;9.00;99.90;;;;;;4997170;28;20030;-58
2023/12/17 06:16:41;;;;;;;8.45;4.97;;;9.00;99.90;;;;;;5000217;28;20038;-58
2023/12/17 06:19:07;;;;;;;8.02;4.18;;;9.00;99.90;;;;;;4998711;28;20125;-60
2023/12/17 06:21:33;;;;;;;6.75;3.75;;;9.00;99.90;;;;;;5000973;28;20113;-60
2023/12/17 06:23:58;;;;;;;6.03;4.03;;;9.00;99.90;;;;;;4998174;28;20044;-61
2023/12/17 06:26:25;;;;;;;5.78;4.25;;;9.00;99.90;;;;;;4998792;28;20050;-57
2023/12/17 06:28:50;;;;;;;4.55;3.90;;;9.00;99.90;;;;;;5003054;28;20526;-58
2023/12/17 06:31:16;;;;;;;4.93;4.38;;;9.10;99.90;;;;;;4999952;28;20034;-56
2023/12/17 06:33:42;;;;;;;6.45;4.22;;;9.00;99.90;;;;;;5001385;28;20033;-60
2023/12/17 06:36:08;;;;;;;8.23;4.55;;;9.10;99.90;;;;;;5001448;28;20026;-60
2023/12/17 06:38:33;;;;;;;6.63;4.15;;;9.00;99.90;;;;;;5001356;28;20084;-60
2023/12/17 06:40:59;;;;;;;7.85;4.07;;;9.00;99.90;;;;;;5000912;28;20040;-57
2023/12/17 06:43:24;;;;;;;4.50;4.03;;;9.10;99.90;;;;;;5001742;28;20048;-58
2023/12/17 06:45:50;;;;;;;3.70;3.17;;;9.10;99.90;;;;;;4999415;28;20066;-57
2023/12/17 06:48:16;;;;;;;4.25;3.58;;;9.10;99.90;;;;;;5000537;28;20030;-56
2023/12/17 06:50:41;;;;;;;6.40;3.58;;;9.10;99.90;;;;;;5002306;28;20041;-58
2023/12/17 06:53:07;;;;;;;9.45;4.07;;;9.00;99.90;;;;;;4998980;28;20122;-59
2023/12/17 06:55:32;;;;;;;6.47;4.28;;;9.00;99.90;;;;;;5002588;28;20033;-57
2023/12/17 06:57:58;;;;;;;4.70;4.05;;;9.10;99.90;;;;;;4992410;28;20076;-59
2023/12/17 07:00:23;;;;;;;4.95;4.15;;;9.10;99.90;;;;;;4996685;28;20032;-58
2023/12/17 07:02:50;;;;;;;6.60;4.30;;;9.10;99.90;;;;;;5000682;28;20490;-58
2023/12/17 07:05:16;;;;;;;4.13;3.67;;;9.10;99.90;;;;;;4997129;28;20034;-58
2023/12/17 07:07:47;;;;;;;6.60;4.05;;;9.10;99.90;;;;;;4997910;28;20021;-57
2023/12/17 07:10:12;;;;;;;5.85;3.60;;;9.10;99.90;;;;;;4997837;28;20031;-61
2023/12/17 07:12:38;;;;;;;10.07;4.13;;;9.10;99.90;;;;;;4998602;28;20022;-62
2023/12/17 07:15:04;;;;;;;9.15;4.53;;;9.00;99.90;;;;;;4998254;28;20374;-58
2023/12/17 07:17:30;;;;;;;6.15;4.13;;;9.10;99.90;;;;;;5001141;28;20040;-59
2023/12/17 07:19:55;;;;;;;5.03;4.30;;;9.10;99.90;;;;;;5000728;28;20022;-60
2023/12/17 07:22:22;;;;;;;5.47;3.95;;;9.00;99.90;;;;;;4999847;28;20375;-60
2023/12/17 07:24:49;;;;;;;6.55;4.03;;;9.10;99.90;;;;;;4997292;28;20546;-56
2023/12/17 07:27:14;;;;;;;7.47;4.47;;;9.10;99.90;;;;;;4998563;28;20490;-60
2023/12/17 07:29:40;;;;;;;5.13;4.25;;;9.10;99.90;;;;;;5003986;28;20096;-59
2023/12/17 07:32:05;;;;;;;6.65;4.45;;;9.10;99.90;;;;;;5004770;28;20050;-60
2023/12/17 07:34:31;;;;;;;5.72;3.95;;;9.10;99.90;;;;;;5000662;28;20037;-60
2023/12/17 07:36:57;;;;;;;4.93;3.85;;;9.00;99.90;;;;;;4997346;28;20022;-60
2023/12/17 07:39:22;;;;;;;6.13;4.20;;;9.10;99.90;;;;;;5002154;28;21382;-58
2023/12/17 07:41:48;;;;;;;6.38;3.60;;;9.00;99.90;;;;;;5003928;28;20034;-59
2023/12/17 07:44:13;;;;;;;7.00;4.75;;;9.00;99.90;;;;;;5005365;28;20501;-59
2023/12/17 07:46:39;;;;;;;7.40;4.05;;;9.10;99.90;;;;;;5003301;28;20589;-59
2023/12/17 07:49:04;;;;;;;7.63;4.38;;;9.10;99.90;;;;;;5003543;28;20030;-57
2023/12/17 07:51:30;;;;;;;6.22;3.92;;;9.10;99.90;;;;;;5001687;28;20607;-61
2023/12/17 07:53:55;;;;;;;4.05;3.65;;;9.10;99.90;;;;;;5002745;28;20101;-60
2023/12/17 07:56:21;;;;;;;6.43;3.90;;;9.00;99.90;;;;;;5000291;28;20050;-61
2023/12/17 07:58:46;;;;;;;4.75;3.08;;;9.10;99.90;;;;;;5001834;28;20021;-59
2023/12/17 08:01:12;;;;;;;4.47;3.45;;;9.10;99.90;;;;;;4999747;28;20027;-60
2023/12/17 08:03:38;;;;;;;5.43;4.00;;;9.10;99.90;;;;;;5005487;28;20022;-60
2023/12/17 08:06:03;;;;;;;6.63;4.13;;;9.00;99.90;;;;;;5002014;28;20031;-61
2023/12/17 08:08:29;;;;;;;6.25;3.90;;;9.00;99.90;;;;;;5004834;28;20124;-59
2023/12/17 08:10:54;;;;;;;4.82;3.95;;;9.00;99.90;;;;;;5002063;28;20041;-57
2023/12/17 08:13:20;;;;;;;4.97;3.90;;;9.00;99.90;;;;;;5004667;28;20044;-61
2023/12/17 08:15:45;;;;;;;5.30;4.13;;;9.00;99.90;;;;;;5004081;28;20520;-60
2023/12/17 08:18:11;;;;;;;5.35;4.03;;;9.10;99.90;;;;;;4999454;28;20570;-58
2023/12/17 08:20:36;;;;;;;4.65;3.63;;;9.00;99.90;;;;;;5002926;28;20050;-59
2023/12/17 08:23:02;;;;;;;6.18;4.13;;;9.00;99.90;;;;;;5000396;28;20052;-61
2023/12/17 08:25:29;;;;;;;6.85;3.88;;;9.00;99.90;;;;;;5002558;28;20030;-60
2023/12/17 08:27:54;;;;;;;5.38;4.20;;;9.10;99.90;;;;;;4998893;28;20408;-59
2023/12/17 08:30:20;;;;;;;7.32;4.68;;;9.10;99.90;;;;;;5006972;28;20040;-61
2023/12/17 08:32:45;;;;;;;5.68;4.20;;;9.10;99.90;;;;;;4999878;28;20038;-59
2023/12/17 08:35:11;;;;;;;6.60;4.05;;;9.10;99.90;;;;;;5001910;28;20029;-61
2023/12/17 08:37:36;;;;;;;7.78;4.32;;;9.10;99.90;;;;;;5002211;28;20026;-58
2023/12/17 08:40:03;;;;;;;7.38;4.88;;;9.10;99.90;;;;;;5004265;28;20018;-62
2023/12/17 08:42:28;;;;;;;6.55;4.95;;;9.10;99.90;;;;;;5002101;28;20030;-60
2023/12/17 08:44:54;;;;;;;8.05;4.40;;;9.10;99.90;;;;;;5003061;28;20040;-60
2023/12/17 08:47:20;;;;;;;5.70;4.45;;;9.10;99.90;;;;;;5002632;28;20105;-62
2023/12/17 08:49:46;;;;;;;6.15;4.45;;;9.10;99.90;;;;;;5003350;28;20307;-62
2023/12/17 08:52:12;;;;;;;5.35;4.57;;;9.10;99.90;;;;;;5001739;28;22184;-62
2023/12/17 08:54:37;;;;;;;9.63;4.75;;;9.10;99.90;;;;;;5002884;28;20068;-59
2023/12/17 08:57:03;;;;;;;7.20;4.57;;;9.10;99.90;;;;;;5000394;28;20475;-60
2023/12/17 08:59:29;;;;;;;7.25;4.93;;;9.10;99.90;;;;;;4999892;28;20042;-59
2023/12/17 09:01:54;;;;;;;9.38;4.93;;;9.20;99.90;;;;;;5001320;28;20120;-60
2023/12/17 09:04:20;;;;;;;6.32;4.78;;;9.20;99.90;;;;;;5002284;28;20042;-60
2023/12/17 09:06:47;;;;;;;8.98;5.40;;;9.20;99.90;;;;;;4998377;28;20053;-62
2023/12/17 09:09:13;;;;;;;6.38;4.63;;;9.20;99.90;;;;;;4997912;28;20037;-59
2023/12/17 09:11:39;;;;;;;6.75;5.68;;;9.20;99.90;;;;;;5001280;28;20121;-58
2023/12/17 09:14:07;;;;;;;7.10;5.13;;;9.20;99.90;;;;;;5003603;28;20109;-61
2023/12/17 09:16:36;;;;;;;7.35;5.20;;;9.30;99.90;;;;;;5002263;28;20580;-58
2023/12/17 09:19:02;;;;;;;10.23;5.10;;;9.30;99.90;;;;;;5000572;28;20026;-61
2023/12/17 09:21:28;;;;;;;8.90;6.65;;;9.30;99.90;;;;;;5004174;28;20124;-60
2023/12/17 09:23:53;;;;;;;11.48;6.05;;;9.30;99.90;;;;;;4999413;28;20121;-61
2023/12/17 09:26:19;;;;;;;9.75;5.43;;;9.30;99.90;;;;;;5001806;28;20117;-60
2023/12/17 09:28:44;;;;;;;12.00;6.07;;;9.30;99.90;;;;;;5003261;28;20068;-60
2023/12/17 09:31:11;;;;;;;9.30;6.40;;;9.30;99.90;;;;;;5003423;28;20552;-59
2023/12/17 09:33:37;;;;;;;8.90;5.20;;;9.30;99.90;;;;;;4999423;28;20259;-59
2023/12/17 09:36:04;;;;;;;7.70;5.22;;;9.30;99.90;;;;;;4998656;28;20035;-57
2023/12/17 09:38:30;;;;;;;9.88;5.35;;;9.30;99.90;;;;;;4999139;28;20045;-58
2023/12/17 09:40:55;;;;;;;7.32;5.32;;;9.30;99.90;;;;;;4999445;28;20026;-60
2023/12/17 09:43:24;;;;;;;6.72;4.70;;;9.30;99.90;;;;;;5003356;28;20076;-59
2023/12/17 09:45:51;;;;;;;8.15;5.00;;;9.30;99.90;;;;;;5002345;28;20686;-61
2023/12/17 09:48:17;;;;;;;8.27;5.75;;;9.30;99.90;;;;;;5000920;28;20026;-60
2023/12/17 09:50:43;;;;;;;7.72;5.30;;;9.30;99.90;;;;;;5000273;28;20037;-60
2023/12/17 09:53:08;;;;;;;9.63;5.00;;;9.30;99.90;;;;;;5002552;28;20034;-59
2023/12/17 09:55:35;;;;;;;7.20;5.88;;;9.30;99.90;;;;;;4999527;28;20060;-60
2023/12/17 09:58:07;;;;;;;6.75;4.72;;;9.30;99.90;;;;;;4997773;28;20026;-53
2023/12/17 10:00:33;;;;;;;7.75;5.28;;;9.30;99.90;;;;;;5001439;28;20125;-59
2023/12/17 10:03:05;;;;;;;7.55;5.80;;;9.30;99.90;;;;;;5001319;28;20394;-58
2023/12/17 10:05:31;;;;;;;8.38;5.53;;;9.30;99.90;;;;;;5000681;28;20038;-59
2023/12/17 10:07:57;;;;;;;5.80;5.22;;;9.30;99.90;;;;;;5000794;28;20528;-59
2023/12/17 10:10:23;;;;;;;6.53;5.10;;;9.30;99.90;;;;;;5001495;28;20105;-58
2023/12/17 10:12:53;;;;;;;12.25;5.55;;;9.30;99.90;;;;;;4999746;28;20109;-59
2023/12/17 10:15:19;;;;;;;6.60;5.28;;;9.30;99.90;;;;;;5000521;28;20041;-60
2023/12/17 10:17:45;;;;;;;6.45;5.50;;;9.30;99.90;;;;;;4998280;28;20053;-58
2023/12/17 10:20:10;;;;;;;9.05;6.40;;;9.30;99.90;;;;;;5000140;28;20559;-61
2023/12/17 10:22:36;;;;;;;8.32;5.60;;;9.30;99.90;;;;;;4997119;28;20098;-59
2023/12/17 10:25:02;;;;;;;11.35;6.03;;;9.30;99.90;;;;;;5002527;28;20109;-60
2023/12/17 10:27:30;;;;;;;9.52;6.22;;;9.40;99.90;;;;;;4998191;28;20042;-56
2023/12/17 10:29:57;;;;;;;8.00;5.70;;;9.40;99.90;;;;;;5000796;28;20116;-60
2023/12/17 10:32:24;;;;;;;8.35;6.07;;;9.30;99.90;;;;;;4999832;28;20062;-58
2023/12/17 10:34:51;;;;;;;8.70;6.18;;;9.30;99.90;;;;;;4997991;28;20510;-59
2023/12/17 10:37:21;;;;;;;8.93;6.05;;;9.30;99.90;;;;;;4995164;28;20786;-58
2023/12/17 10:39:49;;;;;;;7.93;5.65;;;9.30;99.90;;;;;;5045303;22;20045;-50
2023/12/17 10:42:19;;;;;;;7.43;5.63;;;9.30;99.90;;;;;;5021519;28;20089;-51
2023/12/17 10:44:49;;;;;;;8.55;5.28;;;9.30;99.90;;;;;;5018279;28;20497;-55
2023/12/17 10:47:22;;;;;;;6.30;5.70;;;9.30;99.90;;;;;;4971565;28;20033;-47
2023/12/17 10:49:48;;;;;;;10.13;6.43;;;9.30;99.90;;;;;;4896242;28;20025;-47
2023/12/17 10:52:14;;;;;;;6.25;5.50;;;9.30;99.90;;;;;;4916765;28;20074;-59
2023/12/17 10:54:40;;;;;;;10.43;6.15;;;9.30;99.90;;;;;;4927716;28;20513;-52
2023/12/17 10:57:11;;;;;;;6.93;5.47;;;9.40;99.90;;;;;;4970873;28;20039;-50
2023/12/17 10:59:40;;;;;;;7.70;5.15;;;9.30;99.90;;;;;;4943629;28;20033;-51
2023/12/17 11:02:10;;;;;;;8.35;5.20;;;9.40;99.90;;;;;;4948301;28;20519;-59
2023/12/17 11:04:36;;;;;;;8.15;5.50;;;9.30;99.90;;;;;;4987492;28;20172;-47
2023/12/17 11:07:02;;;;;;;6.28;5.68;;;9.30;99.90;;;;;;4951934;28;20029;-50
2023/12/17 11:09:27;;;;;;;6.13;5.32;;;9.30;99.90;;;;;;4957087;28;20045;-51
2023/12/17 11:11:53;;;;;;;6.57;5.85;;;9.30;99.90;;;;;;4956293;28;20052;-52
2023/12/17 11:14:19;;;;;;;7.60;5.65;;;9.40;99.90;;;;;;4921068;28;20483;-51
2023/12/17 11:16:45;;;;;;;6.80;5.97;;;9.40;99.90;;;;;;4996068;28;20022;-50
2023/12/17 11:19:14;;;;;;;6.60;5.85;;;9.40;99.90;;;;;;4935553;28;20487;-53
2023/12/17 11:21:41;;;;;;;6.55;5.72;;;9.40;99.90;;;;;;4912837;28;20100;-59
2023/12/17 11:24:07;;;;;;;7.47;6.07;;;9.40;99.90;;;;;;4986095;28;20024;-51
2023/12/17 11:26:40;;;;;;;8.88;6.10;;;9.40;99.90;;;;;;4945039;28;20029;-56
2023/12/17 11:29:32;;;;;;;9.70;6.80;;;9.40;99.90;;;;;;4961757;28;20036;-59
2023/12/17 11:31:59;;;;;;;7.65;6.47;;;9.40;99.90;;;;;;4978923;28;20025;-52
2023/12/17 11:34:25;;;;;;;7.13;6.43;;;9.40;99.90;;;;;;4951483;28;20029;-50
2023/12/17 11:36:53;;;;;;;7.28;6.57;;;9.40;99.90;;;;;;4936354;28;20037;-49
2023/12/17 11:39:20;;;;;;;9.25;6.63;;;9.40;99.90;;;;;;4981455;28;20038;-49
2023/12/17 11:41:45;;;;;;;7.63;6.78;;;9.40;99.90;;;;;;4965070;28;20037;-52
2023/12/17 11:44:11;;;;;;;8.13;7.05;;;9.40;99.90;;;;;;4947981;28;20025;-60
2023/12/17 11:46:36;;;;;;;10.77;6.72;;;9.40;99.90;;;;;;4979339;28;20028;-49
2023/12/17 11:49:03;;;;;;;9.60;7.75;;;9.40;99.90;;;;;;4944566;28;20087;-50
2023/12/17 11:51:29;;;;;;;10.27;7.05;;;9.40;99.90;;;;;;4977496;28;20040;-52
2023/12/17 11:53:55;;;;;;;6.93;6.22;;;9.40;99.90;;;;;;4940520;28;20120;-48
2023/12/17 11:56:30;;;;;;;7.70;6.05;;;9.40;99.90;;;;;;4941591;28;20104;-50
2023/12/17 11:58:56;;;;;;;8.18;6.20;;;9.40;99.90;;;;;;4981365;28;20029;-55
2023/12/17 12:01:22;;;;;;;7.65;6.75;;;9.40;99.90;;;;;;4942433;28;20025;-54
2023/12/17 12:03:47;;;;;;;11.23;8.88;;;9.40;99.90;;;;;;4953387;28;20038;-51
2023/12/17 12:06:14;;;;;;;11.50;9.10;;;9.40;99.90;;;;;;4970353;28;20030;-52
2023/12/17 12:08:41;;;;;;;12.50;9.63;;;9.40;99.90;;;;;;4946370;28;20033;-52
2023/12/17 12:11:08;;;;;;;12.88;11.10;;;9.40;99.90;;;;;;4953293;28;20032;-60
2023/12/17 12:13:40;;;;;;;16.55;12.20;;;9.40;99.90;;;;;;4965518;28;20028;-55
2023/12/17 12:16:07;;;;;;;14.07;11.23;;;9.40;99.90;;;;;;4945420;28;20568;-57
2023/12/17 12:18:33;;;;;;;12.63;11.30;;;9.40;99.90;;;;;;4976261;28;20033;-52
2023/12/17 12:20:58;;;;;;;15.07;11.32;;;9.40;99.90;;;;;;4932316;28;20014;-56
2023/12/17 12:23:24;;;;;;;12.68;9.35;;;9.40;99.90;;;;;;4931360;28;22025;-50
2023/12/17 12:25:50;;;;;;;12.25;9.63;;;9.50;99.90;;;;;;4977120;28;20061;-52
2023/12/17 12:28:19;;;;;;;13.32;9.90;;;9.50;99.90;;;;;;4935895;28;20148;-52
2023/12/17 12:30:46;;;;;;;9.98;8.00;;;9.50;99.90;;;;;;4929339;28;20038;-52
2023/12/17 12:33:13;;;;;;;11.32;8.68;;;9.50;99.90;;;;;;4969981;28;20619;-51
2023/12/17 12:35:40;;;;;;;12.07;9.05;;;9.50;99.90;;;;;;4930099;28;20029;-51
2023/12/17 12:38:26;;;;;;;10.00;7.75;;;9.50;99.90;;;;;;4968928;28;20038;-60
2023/12/17 12:40:53;;;;;;;9.33;7.27;;;9.50;99.90;;;;;;4967140;28;20030;-49
2023/12/17 12:43:21;;;;;;;11.57;7.30;;;9.50;99.90;;;;;;4938511;28;20381;-52
2023/12/17 12:45:49;;;;;;;12.05;8.70;;;9.50;99.90;;;;;;4949247;28;20476;-48
2023/12/17 12:48:22;;;;;;;14.43;9.57;;;9.50;99.90;;;;;;4968703;28;20022;-51